MSC Vega — D5BE4 — position and weather

sailwx.info

Track history (hours):
 
Tides and Currents Weather Stations Pressure Air Temp Water Temp Dewpoint Dewpoint Depression Visibility Wind Speed Wind Dir Waves Ship Positions

MSC Vega

Last reported at 2016-Feb-01 00:27 UTC. Time now 2016-Feb-11 17:10 UTC.
Position N 38°08' E 015°35'.
Warning: this ship's position is 10 days out of date.

Length 366 m; draft 14.5 m.

Type: Ship (hazmat cat A). MMSI: 636015506.

Date/timePositionNaut miles runAvg speedWind from/ knotsBaromVisibWave heightAir tempDewpointWater temp
2016-Feb-01 00:27N 38°08' E 015°35'1516.2
2016-Jan-31 23:32N 38°21' E 015°44'10 7.6
2016-Jan-31 22:14N 38°27' E 015°54'0 0.0
2016-Jan-31 18:22N 38°27' E 015°54'0 0.0
2016-Jan-31 16:22N 38°27' E 015°54'0 0.0
2016-Jan-31 08:22N 38°27' E 015°54'0 0.0
2016-Jan-30 20:07N 38°27' E 015°54'5 3.0
2016-Jan-30 18:31N 38°29' E 015°49'1616.9
2016-Jan-30 17:33N 38°41' E 015°35'10122.9
2016-Jan-30 13:09N 39°48' E 013°57'27722.0
2016-Jan-30 00:33N 43°07' E 009°41'2222.0
2016-Jan-29 23:33N 43°29' E 009°43'2222.0
2016-Jan-29 22:33N 43°50' E 009°49'1515.1
2016-Jan-29 21:33N 44°05' E 009°51'1 0.9
2016-Jan-29 20:33N 44°06' E 009°51'0 0.0
2016-Jan-29 19:33N 44°06' E 009°51'0 0.0
2016-Jan-29 18:33N 44°06' E 009°51'0 0.0
2016-Jan-29 17:33N 44°06' E 009°51'0 0.0
2016-Jan-29 16:33N 44°06' E 009°51'0 0.0
2016-Jan-29 15:33N 44°06' E 009°51'0 0.0
2016-Jan-29 14:33N 44°06' E 009°51'0 0.0
2016-Jan-29 13:33N 44°06' E 009°51'0 0.0
2016-Jan-29 12:33N 44°06' E 009°51'0 0.0
2016-Jan-29 11:33N 44°06' E 009°51'0 0.0
2016-Jan-29 10:33N 44°06' E 009°51'0 0.0
2016-Jan-29 09:33N 44°06' E 009°51'0 0.0
2016-Jan-29 08:33N 44°06' E 009°51'0 0.0
2016-Jan-29 07:33N 44°06' E 009°51'0 0.0
2016-Jan-29 06:33N 44°06' E 009°51'0 0.0
2016-Jan-29 05:33N 44°06' E 009°51'0 0.0
2016-Jan-29 04:33N 44°06' E 009°51'0 0.0
2016-Jan-29 03:33N 44°06' E 009°51'0 0.0
2016-Jan-29 02:33N 44°06' E 009°51'0 0.0
2016-Jan-29 01:33N 44°06' E 009°51'0 0.0
2016-Jan-29 00:33N 44°06' E 009°51'0 0.0
2016-Jan-28 23:33N 44°06' E 009°51'0 0.0
2016-Jan-28 22:33N 44°06' E 009°51'0 0.0
2016-Jan-28 21:33N 44°06' E 009°51'0 0.0
2016-Jan-28 20:33N 44°06' E 009°51'0 0.5
2016-Jan-28 19:33N 44°06' E 009°51'7 6.7
2016-Jan-28 18:33N 43°59' E 009°52'4 4.0
2016-Jan-28 17:33N 43°57' E 009°47'1 0.8
2016-Jan-28 16:33N 43°57' E 009°46'1 0.7
2016-Jan-28 15:33N 43°56' E 009°46'1 0.7
2016-Jan-28 14:33N 43°55' E 009°46'3 3.3
2016-Jan-28 13:33N 43°56' E 009°51'1 0.8
2016-Jan-28 12:33N 43°56' E 009°50'1 0.9
2016-Jan-28 11:33N 43°55' E 009°49'1 1.0
2016-Jan-28 10:33N 43°55' E 009°47'1 1.0
2016-Jan-28 09:33N 43°54' E 009°46'1 1.4
2016-Jan-28 08:33N 43°54' E 009°44'1211.7
2016-Jan-28 07:33N 43°49' E 009°30'1313.0
2016-Jan-28 06:33N 43°42' E 009°14'1313.1
2016-Jan-28 05:33N 43°35' E 008°59'1313.3
2016-Jan-28 04:33N 43°28' E 008°44'1313.0
2016-Jan-28 03:33N 43°21' E 008°28'14513.0
2016-Jan-27 16:26N 42°04' E 005°41'1213.0
2016-Jan-27 15:30N 41°58' E 005°27'1213.0
2016-Jan-27 14:33N 41°52' E 005°13'1413.0
2016-Jan-27 13:27N 41°44' E 004°57'69 8.7
2016-Jan-27 05:30N 41°07' E 003°38'1213.1
2016-Jan-27 04:33N 41°01' E 003°24'1313.0
2016-Jan-27 03:33N 40°54' E 003°10'1313.2
2016-Jan-27 02:33N 40°47' E 002°55'1313.4
2016-Jan-27 01:33N 40°40' E 002°40'1313.1
2016-Jan-27 00:33N 40°33' E 002°25'1312.9
2016-Jan-26 23:33N 40°26' E 002°11'1312.9
2016-Jan-26 22:33N 40°19' E 001°57'1312.7
2016-Jan-26 21:33N 40°12' E 001°43'1312.6
2016-Jan-26 20:33N 40°05' E 001°29'1312.6
2016-Jan-26 19:33N 39°59' E 001°15'1313.0
2016-Jan-26 18:33N 39°52' E 001°00'5612.8
2016-Jan-26 14:12N 39°29' W 000°06'812.8
2016-Jan-26 13:33N 39°26' W 000°15'3 3.0
2016-Jan-26 12:34N 39°26' W 000°19'0 0.0
2016-Jan-26 11:31N 39°26' W 000°19'0 0.0
2016-Jan-26 10:31N 39°26' W 000°19'0 0.0
2016-Jan-26 09:28N 39°26' W 000°19'0 0.0
2016-Jan-26 08:31N 39°26' W 000°19'0 0.0
2016-Jan-26 07:31N 39°26' W 000°19'0 0.0
2016-Jan-26 06:34N 39°26' W 000°19'0 0.0
2016-Jan-26 05:31N 39°26' W 000°19'0 0.0
2016-Jan-26 04:33N 39°26' W 000°19'0 0.0
2016-Jan-26 03:34N 39°26' W 000°19'0 0.0
2016-Jan-26 02:33N 39°26' W 000°19'0 0.0
2016-Jan-26 01:31N 39°26' W 000°19'0 0.0
2016-Jan-26 00:34N 39°26' W 000°19'0 0.0
2016-Jan-25 23:34N 39°26' W 000°19'0 0.0
2016-Jan-25 22:31N 39°26' W 000°19'0 0.0
2016-Jan-25 21:31N 39°26' W 000°19'0 0.0
2016-Jan-25 20:33N 39°26' W 000°19'0 0.0
2016-Jan-25 19:33N 39°26' W 000°19'0 0.0
2016-Jan-25 18:33N 39°26' W 000°19'0 0.0
2016-Jan-25 17:33N 39°26' W 000°19'0 0.0
2016-Jan-25 16:31N 39°26' W 000°19'0 0.0
2016-Jan-25 15:33N 39°26' W 000°19'0 0.0
2016-Jan-25 14:31N 39°26' W 000°19'0 0.0
2016-Jan-25 13:34N 39°26' W 000°19'0 0.0
2016-Jan-25 12:30N 39°26' W 000°19'0 0.0
2016-Jan-25 11:33N 39°26' W 000°19'0 0.0
2016-Jan-25 10:33N 39°26' W 000°19'0 0.0
2016-Jan-25 09:33N 39°26' W 000°19'0 0.0
2016-Jan-25 08:34N 39°26' W 000°19'0 0.0
2016-Jan-25 07:34N 39°26' W 000°19'0 0.0
2016-Jan-25 06:24N 39°26' W 000°19'0 0.0
2016-Jan-25 05:34N 39°26' W 000°19'0 0.0
2016-Jan-25 04:33N 39°26' W 000°19'0 0.0
2016-Jan-25 03:33N 39°26' W 000°19'0 0.0
2016-Jan-25 02:33N 39°26' W 000°19'0 0.0
2016-Jan-25 01:33N 39°26' W 000°19'0 0.0
2016-Jan-25 00:33N 39°26' W 000°19'2 2.5
2016-Jan-24 23:33N 39°26' W 000°16'3 3.2
2016-Jan-24 22:33N 39°28' W 000°13'7114.2
2016-Jan-24 17:31N 40°17' E 000°55'1414.3
2016-Jan-24 16:33N 40°26' E 001°08'1414.2
2016-Jan-24 15:32N 40°35' E 001°22'1414.2
2016-Jan-24 14:33N 40°45' E 001°35'1514.9
2016-Jan-24 13:33N 40°57' E 001°48'1514.7
2016-Jan-24 12:33N 41°08' E 002°01'1312.8
2016-Jan-24 11:33N 41°18' E 002°10'1 0.1
2016-Jan-24 04:04N 41°19' E 002°09'0 0.0
2016-Jan-24 03:28N 41°19' E 002°09'0 0.0
2016-Jan-24 00:10N 41°19' E 002°09'0 0.0
2016-Jan-23 23:28N 41°19' E 002°09'0 0.0
2016-Jan-23 22:31N 41°19' E 002°09'0 0.0
2016-Jan-23 21:34N 41°19' E 002°09'0 0.0
2016-Jan-23 20:28N 41°19' E 002°09'0 0.0
2016-Jan-23 19:28N 41°19' E 002°09'0 0.0
2016-Jan-23 18:28N 41°19' E 002°09'0 0.0
2016-Jan-23 17:31N 41°19' E 002°09'0 0.0
2016-Jan-23 16:28N 41°19' E 002°09'0 0.0
2016-Jan-23 15:28N 41°19' E 002°09'0 0.0
2016-Jan-23 14:31N 41°19' E 002°09'0 0.0
2016-Jan-23 13:28N 41°19' E 002°09'4 1.5
2016-Jan-23 10:31N 41°16' E 002°14'1414.8
2016-Jan-23 09:33N 41°09' E 002°30'1818.3
2016-Jan-23 08:33N 41°00' E 002°52'1818.1
2016-Jan-23 07:33N 40°52' E 003°13'1918.4
2016-Jan-23 06:30N 40°42' E 003°35'26218.6
2016-Jan-22 16:24N 38°36' E 008°33'27418.3
2016-Jan-22 01:23N 36°14' E 013°28'1819.0
2016-Jan-22 00:28N 36°04' E 013°46'  
Track history (hours):
 
Tides and Currents Weather Stations Pressure Air Temp Water Temp Dewpoint Dewpoint Depression Visibility Wind Speed Wind Dir Waves Ship Positions

MSC Vega

Last reported at 2016-Feb-01 00:27 UTC. Time now 2016-Feb-11 17:10 UTC.
Position N 38°08' E 015°35'.
Warning: this ship's position is 10 days out of date.

Length 366 m; draft 14.5 m.

Type: Ship (hazmat cat A). MMSI: 636015506.

Date/timePositionNaut miles runAvg speedWind from/ knotsBaromVisibWave heightAir tempDewpointWater temp
2016-Feb-01 00:27N 38°08' E 015°35'1516.2
2016-Jan-31 23:32N 38°21' E 015°44'10 7.6
2016-Jan-31 22:14N 38°27' E 015°54'0 0.0
2016-Jan-31 18:22N 38°27' E 015°54'0 0.0
2016-Jan-31 16:22N 38°27' E 015°54'0 0.0
2016-Jan-31 08:22N 38°27' E 015°54'0 0.0
2016-Jan-30 20:07N 38°27' E 015°54'5 3.0
2016-Jan-30 18:31N 38°29' E 015°49'1616.9
2016-Jan-30 17:33N 38°41' E 015°35'10122.9
2016-Jan-30 13:09N 39°48' E 013°57'27722.0
2016-Jan-30 00:33N 43°07' E 009°41'2222.0
2016-Jan-29 23:33N 43°29' E 009°43'2222.0
2016-Jan-29 22:33N 43°50' E 009°49'1515.1
2016-Jan-29 21:33N 44°05' E 009°51'1 0.9
2016-Jan-29 20:33N 44°06' E 009°51'0 0.0
2016-Jan-29 19:33N 44°06' E 009°51'0 0.0
2016-Jan-29 18:33N 44°06' E 009°51'0 0.0
2016-Jan-29 17:33N 44°06' E 009°51'0 0.0
2016-Jan-29 16:33N 44°06' E 009°51'0 0.0
2016-Jan-29 15:33N 44°06' E 009°51'0 0.0
2016-Jan-29 14:33N 44°06' E 009°51'0 0.0
2016-Jan-29 13:33N 44°06' E 009°51'0 0.0
2016-Jan-29 12:33N 44°06' E 009°51'0 0.0
2016-Jan-29 11:33N 44°06' E 009°51'0 0.0
2016-Jan-29 10:33N 44°06' E 009°51'0 0.0
2016-Jan-29 09:33N 44°06' E 009°51'0 0.0
2016-Jan-29 08:33N 44°06' E 009°51'0 0.0
2016-Jan-29 07:33N 44°06' E 009°51'0 0.0
2016-Jan-29 06:33N 44°06' E 009°51'0 0.0
2016-Jan-29 05:33N 44°06' E 009°51'0 0.0
2016-Jan-29 04:33N 44°06' E 009°51'0 0.0
2016-Jan-29 03:33N 44°06' E 009°51'0 0.0
2016-Jan-29 02:33N 44°06' E 009°51'0 0.0
2016-Jan-29 01:33N 44°06' E 009°51'0 0.0
2016-Jan-29 00:33N 44°06' E 009°51'0 0.0
2016-Jan-28 23:33N 44°06' E 009°51'0 0.0
2016-Jan-28 22:33N 44°06' E 009°51'0 0.0
2016-Jan-28 21:33N 44°06' E 009°51'0 0.0
2016-Jan-28 20:33N 44°06' E 009°51'0 0.5
2016-Jan-28 19:33N 44°06' E 009°51'7 6.7
2016-Jan-28 18:33N 43°59' E 009°52'4 4.0
2016-Jan-28 17:33N 43°57' E 009°47'1 0.8
2016-Jan-28 16:33N 43°57' E 009°46'1 0.7
2016-Jan-28 15:33N 43°56' E 009°46'1 0.7
2016-Jan-28 14:33N 43°55' E 009°46'3 3.3
2016-Jan-28 13:33N 43°56' E 009°51'1 0.8
2016-Jan-28 12:33N 43°56' E 009°50'1 0.9
2016-Jan-28 11:33N 43°55' E 009°49'1 1.0
2016-Jan-28 10:33N 43°55' E 009°47'1 1.0
2016-Jan-28 09:33N 43°54' E 009°46'1 1.4
2016-Jan-28 08:33N 43°54' E 009°44'1211.7
2016-Jan-28 07:33N 43°49' E 009°30'1313.0
2016-Jan-28 06:33N 43°42' E 009°14'1313.1
2016-Jan-28 05:33N 43°35' E 008°59'1313.3
2016-Jan-28 04:33N 43°28' E 008°44'1313.0
2016-Jan-28 03:33N 43°21' E 008°28'14513.0
2016-Jan-27 16:26N 42°04' E 005°41'1213.0
2016-Jan-27 15:30N 41°58' E 005°27'1213.0
2016-Jan-27 14:33N 41°52' E 005°13'1413.0
2016-Jan-27 13:27N 41°44' E 004°57'69 8.7
2016-Jan-27 05:30N 41°07' E 003°38'1213.1
2016-Jan-27 04:33N 41°01' E 003°24'1313.0
2016-Jan-27 03:33N 40°54' E 003°10'1313.2
2016-Jan-27 02:33N 40°47' E 002°55'1313.4
2016-Jan-27 01:33N 40°40' E 002°40'1313.1
2016-Jan-27 00:33N 40°33' E 002°25'1312.9
2016-Jan-26 23:33N 40°26' E 002°11'1312.9
2016-Jan-26 22:33N 40°19' E 001°57'1312.7
2016-Jan-26 21:33N 40°12' E 001°43'1312.6
2016-Jan-26 20:33N 40°05' E 001°29'1312.6
2016-Jan-26 19:33N 39°59' E 001°15'1313.0
2016-Jan-26 18:33N 39°52' E 001°00'5612.8
2016-Jan-26 14:12N 39°29' W 000°06'812.8
2016-Jan-26 13:33N 39°26' W 000°15'3 3.0
2016-Jan-26 12:34N 39°26' W 000°19'0 0.0
2016-Jan-26 11:31N 39°26' W 000°19'0 0.0
2016-Jan-26 10:31N 39°26' W 000°19'0 0.0
2016-Jan-26 09:28N 39°26' W 000°19'0 0.0
2016-Jan-26 08:31N 39°26' W 000°19'0 0.0
2016-Jan-26 07:31N 39°26' W 000°19'0 0.0
2016-Jan-26 06:34N 39°26' W 000°19'0 0.0
2016-Jan-26 05:31N 39°26' W 000°19'0 0.0
2016-Jan-26 04:33N 39°26' W 000°19'0 0.0
2016-Jan-26 03:34N 39°26' W 000°19'0 0.0
2016-Jan-26 02:33N 39°26' W 000°19'0 0.0
2016-Jan-26 01:31N 39°26' W 000°19'0 0.0
2016-Jan-26 00:34N 39°26' W 000°19'0 0.0
2016-Jan-25 23:34N 39°26' W 000°19'0 0.0
2016-Jan-25 22:31N 39°26' W 000°19'0 0.0
2016-Jan-25 21:31N 39°26' W 000°19'0 0.0
2016-Jan-25 20:33N 39°26' W 000°19'0 0.0
2016-Jan-25 19:33N 39°26' W 000°19'0 0.0
2016-Jan-25 18:33N 39°26' W 000°19'0 0.0
2016-Jan-25 17:33N 39°26' W 000°19'0 0.0
2016-Jan-25 16:31N 39°26' W 000°19'0 0.0
2016-Jan-25 15:33N 39°26' W 000°19'0 0.0
2016-Jan-25 14:31N 39°26' W 000°19'0 0.0
2016-Jan-25 13:34N 39°26' W 000°19'0 0.0
2016-Jan-25 12:30N 39°26' W 000°19'0 0.0
2016-Jan-25 11:33N 39°26' W 000°19'0 0.0
2016-Jan-25 10:33N 39°26' W 000°19'0 0.0
2016-Jan-25 09:33N 39°26' W 000°19'0 0.0
2016-Jan-25 08:34N 39°26' W 000°19'0 0.0
2016-Jan-25 07:34N 39°26' W 000°19'0 0.0
2016-Jan-25 06:24N 39°26' W 000°19'0 0.0
2016-Jan-25 05:34N 39°26' W 000°19'0 0.0
2016-Jan-25 04:33N 39°26' W 000°19'0 0.0
2016-Jan-25 03:33N 39°26' W 000°19'0 0.0
2016-Jan-25 02:33N 39°26' W 000°19'0 0.0
2016-Jan-25 01:33N 39°26' W 000°19'0 0.0
2016-Jan-25 00:33N 39°26' W 000°19'2 2.5
2016-Jan-24 23:33N 39°26' W 000°16'3 3.2
2016-Jan-24 22:33N 39°28' W 000°13'7114.2
2016-Jan-24 17:31N 40°17' E 000°55'1414.3
2016-Jan-24 16:33N 40°26' E 001°08'1414.2
2016-Jan-24 15:32N 40°35' E 001°22'1414.2
2016-Jan-24 14:33N 40°45' E 001°35'1514.9
2016-Jan-24 13:33N 40°57' E 001°48'1514.7
2016-Jan-24 12:33N 41°08' E 002°01'1312.8
2016-Jan-24 11:33N 41°18' E 002°10'1 0.1
2016-Jan-24 04:04N 41°19' E 002°09'0 0.0
2016-Jan-24 03:28N 41°19' E 002°09'0 0.0
2016-Jan-24 00:10N 41°19' E 002°09'0 0.0
2016-Jan-23 23:28N 41°19' E 002°09'0 0.0
2016-Jan-23 22:31N 41°19' E 002°09'0 0.0
2016-Jan-23 21:34N 41°19' E 002°09'0 0.0
2016-Jan-23 20:28N 41°19' E 002°09'0 0.0
2016-Jan-23 19:28N 41°19' E 002°09'0 0.0
2016-Jan-23 18:28N 41°19' E 002°09'0 0.0
2016-Jan-23 17:31N 41°19' E 002°09'0 0.0
2016-Jan-23 16:28N 41°19' E 002°09'0 0.0
2016-Jan-23 15:28N 41°19' E 002°09'0 0.0
2016-Jan-23 14:31N 41°19' E 002°09'0 0.0
2016-Jan-23 13:28N 41°19' E 002°09'4 1.5
2016-Jan-23 10:31N 41°16' E 002°14'1414.8
2016-Jan-23 09:33N 41°09' E 002°30'1818.3
2016-Jan-23 08:33N 41°00' E 002°52'1818.1
2016-Jan-23 07:33N 40°52' E 003°13'1918.4
2016-Jan-23 06:30N 40°42' E 003°35'26218.6
2016-Jan-22 16:24N 38°36' E 008°33'27418.3
2016-Jan-22 01:23N 36°14' E 013°28'1819.0
2016-Jan-22 00:28N 36°04' E 013°46'  

Dump ship's entire track history